Time;durP1;ratioP1;P1;durP2;ratioP2;P2;SDS_P1;SDS_P2;PMS_P1;PMS_P2;Temp;Humidity;BMP_temperature;BMP_pressure;BME280_temperature;BME280_humidity;BME280_pressure;Samples;Min_cycle;Max_cycle;Signal;HPM_P1;HPM_P2
2023/10/16 00:01:10;;;;;;;3.27;2.97;;;16.10;61.60;17.00;101559.00;;;;5068937;28;20255;-52
2023/10/16 00:03:41;;;;;;;3.03;2.70;;;16.10;61.50;17.00;101557.00;;;;5068047;28;20185;-53
2023/10/16 00:06:07;;;;;;;3.20;2.90;;;16.00;61.30;17.00;101557.00;;;;5068028;28;20197;-51
2023/10/16 00:08:34;;;;;;;3.57;2.80;;;16.00;61.20;17.00;101559.00;;;;5066433;28;20282;-52
2023/10/16 00:11:03;;;;;;;3.53;3.00;;;16.00;61.30;17.00;101568.00;;;;5067968;28;20235;-52
2023/10/16 00:13:30;;;;;;;2.87;2.57;;;16.00;61.30;17.00;101567.00;;;;5066708;28;20170;-51
2023/10/16 00:15:58;;;;;;;2.70;2.50;;;16.00;61.20;16.90;101564.00;;;;5068006;28;20197;-51
2023/10/16 00:18:24;;;;;;;2.83;2.63;;;15.90;61.20;16.90;101560.00;;;;5068218;28;20181;-52
2023/10/16 00:20:51;;;;;;;2.80;2.60;;;15.90;61.20;16.90;101546.00;;;;5067792;28;20203;-51
2023/10/16 00:23:18;;;;;;;2.87;2.67;;;15.90;61.30;16.90;101560.00;;;;5066523;28;20584;-51
2023/10/16 00:25:50;;;;;;;3.00;2.70;;;15.90;60.90;16.90;101555.00;;;;5071118;28;20183;-52
2023/10/16 00:28:20;;;;;;;2.60;2.40;;;15.90;60.90;16.90;101554.00;;;;5071722;28;20750;-52
2023/10/16 00:30:46;;;;;;;2.67;2.47;;;15.90;60.90;16.90;101552.00;;;;5068288;28;20313;-51
2023/10/16 00:33:13;;;;;;;2.97;2.40;;;15.90;61.00;16.80;101557.00;;;;5068426;28;20295;-52
2023/10/16 00:35:39;;;;;;;3.47;2.57;;;15.90;60.90;16.80;101549.00;;;;5068139;28;20178;-53
2023/10/16 00:38:12;;;;;;;2.60;2.40;;;15.90;60.70;16.80;101550.00;;;;5067938;28;20180;-51
2023/10/16 00:43:28;;;;;;;2.73;2.40;;;15.80;60.60;16.70;101542.00;;;;5069222;28;20749;-52
2023/10/16 00:46:05;;;;;;;2.53;2.33;;;15.90;60.80;16.70;101548.00;;;;5056784;28;20194;-51
2023/10/16 00:48:32;;;;;;;2.90;2.60;;;15.80;60.60;16.70;101546.00;;;;5061734;28;20201;-51
2023/10/16 00:51:04;;;;;;;2.57;2.37;;;15.80;60.50;16.70;101536.00;;;;5065343;28;20536;-52
2023/10/16 00:53:31;;;;;;;2.40;2.20;;;15.80;60.50;16.70;101541.00;;;;5065625;28;20185;-53
2023/10/16 00:55:58;;;;;;;2.57;2.37;;;15.80;60.40;16.70;101550.00;;;;5065880;28;20177;-52
2023/10/16 00:58:23;;;;;;;2.43;2.23;;;15.70;60.30;16.70;101546.00;;;;5064784;28;20185;-52
2023/10/16 01:00:49;;;;;;;2.70;2.50;;;15.70;60.30;16.60;101542.00;;;;5067053;28;20208;-51
2023/10/16 01:03:20;;;;;;;2.40;2.20;;;15.70;60.50;16.60;101546.00;;;;5046533;28;20284;-51
2023/10/16 01:05:49;;;;;;;2.40;2.20;;;15.70;60.80;16.40;101545.00;;;;5059557;28;20344;-51
2023/10/16 01:08:17;;;;;;;3.23;2.30;;;15.70;60.50;16.60;101540.00;;;;5065943;28;20189;-52
2023/10/16 01:10:48;;;;;;;2.17;2.07;;;15.70;60.60;16.60;101534.00;;;;5066843;28;20679;-52
2023/10/16 01:13:16;;;;;;;2.37;2.17;;;15.70;60.70;16.60;101539.00;;;;5066171;28;20184;-52
2023/10/16 01:15:50;;;;;;;2.50;2.30;;;15.70;60.60;16.50;101541.00;;;;5060798;28;20676;-51
2023/10/16 01:18:17;;;;;;;2.50;2.30;;;15.70;60.70;16.50;101538.00;;;;5065808;28;20194;-52
2023/10/16 01:20:50;;;;;;;2.63;2.20;;;15.70;60.70;16.50;101538.00;;;;5065200;28;20212;-54
2023/10/16 01:23:19;;;;;;;2.57;2.37;;;15.60;60.60;16.50;101525.00;;;;5052287;28;20194;-51
2023/10/16 01:25:46;;;;;;;4.27;2.50;;;15.60;60.70;16.50;101530.00;;;;5061029;28;20185;-51
2023/10/16 01:28:15;;;;;;;2.50;2.30;;;15.60;60.70;16.50;101525.00;;;;5058946;28;20244;-52
2023/10/16 01:30:42;;;;;;;2.50;2.30;;;15.60;60.70;16.40;101524.00;;;;5066431;28;20718;-51
2023/10/16 01:33:08;;;;;;;2.50;2.30;;;15.60;60.70;16.40;101524.00;;;;5066863;28;20174;-51
2023/10/16 01:35:36;;;;;;;3.20;2.43;;;15.50;60.70;16.40;101530.00;;;;5066108;28;20269;-52
2023/10/16 01:38:20;;;;;;;3.80;2.27;;;15.60;60.90;16.40;101530.00;;;;5064709;28;20201;-51
2023/10/16 01:41:05;;;;;;;2.40;2.20;;;15.60;61.70;16.40;101528.00;;;;5065729;28;20213;-51
2023/10/16 01:43:35;;;;;;;3.77;2.27;;;15.50;60.90;16.40;101528.00;;;;5050429;28;20194;-52
2023/10/16 01:46:03;;;;;;;3.33;2.40;;;15.50;61.00;16.40;101534.00;;;;5066925;28;20193;-52
2023/10/16 01:48:29;;;;;;;3.13;2.40;;;15.50;61.20;16.30;101527.00;;;;5066800;28;20689;-52
2023/10/16 01:50:55;;;;;;;3.30;2.40;;;15.50;61.20;16.30;101528.00;;;;5065645;28;20294;-52
2023/10/16 01:53:25;;;;;;;2.30;2.10;;;15.50;61.30;16.30;101523.00;;;;5067006;28;20188;-52
2023/10/16 01:55:54;;;;;;;3.40;2.30;;;15.50;61.20;16.30;101522.00;;;;5066916;28;20165;-52
2023/10/16 01:58:23;;;;;;;2.23;2.03;;;15.50;61.20;16.30;101524.00;;;;5066765;28;20667;-53
2023/10/16 02:00:51;;;;;;;2.23;2.03;;;15.50;61.20;16.30;101525.00;;;;5067367;28;20201;-52
2023/10/16 02:03:17;;;;;;;2.90;2.27;;;15.50;61.30;16.30;101524.00;;;;5070876;28;20212;-52
2023/10/16 02:05:46;;;;;;;2.30;2.10;;;15.50;61.30;16.20;101526.00;;;;5070427;28;20708;-52
2023/10/16 02:08:13;;;;;;;2.47;2.00;;;15.40;61.30;16.20;101521.00;;;;5070624;28;20209;-52
2023/10/16 02:10:40;;;;;;;4.00;2.13;;;15.40;61.40;16.20;101511.00;;;;5070574;28;20666;-52
2023/10/16 02:13:08;;;;;;;2.07;1.97;;;15.40;61.40;16.20;101522.00;;;;5070723;28;20178;-52
2023/10/16 02:15:36;;;;;;;2.30;2.10;;;15.40;61.50;16.20;101522.00;;;;5070277;28;20185;-52
2023/10/16 02:18:05;;;;;;;1.90;1.80;;;15.40;61.50;16.20;101511.00;;;;5064815;28;20210;-52
2023/10/16 02:20:35;;;;;;;2.27;2.07;;;15.30;61.30;16.10;101515.00;;;;5059169;28;20690;-52
2023/10/16 02:23:03;;;;;;;2.30;2.10;;;15.40;61.50;16.10;101516.00;;;;5051481;28;20254;-51
2023/10/16 02:25:29;;;;;;;2.33;2.07;;;15.30;61.40;16.10;101506.00;;;;5051680;28;20183;-52
2023/10/16 02:27:54;;;;;;;2.10;1.90;;;15.40;61.50;16.10;101501.00;;;;5054970;28;20194;-52
2023/10/16 02:32:46;;;;;;;2.30;2.10;;;15.30;61.50;16.10;101510.00;;;;5079733;28;20188;-52
2023/10/16 02:35:14;;;;;;;2.20;2.00;;;15.30;61.60;16.10;101511.00;;;;5073838;28;20178;-51
2023/10/16 02:37:41;;;;;;;2.10;1.90;;;15.30;61.70;16.00;101520.00;;;;5071747;28;20212;-52
2023/10/16 02:40:11;;;;;;;2.00;1.90;;;15.30;61.70;16.00;101501.00;;;;5067971;28;20205;-53
2023/10/16 02:42:40;;;;;;;2.00;1.90;;;15.30;61.70;16.00;101506.00;;;;5052244;28;20337;-52
2023/10/16 02:45:24;;;;;;;2.07;1.83;;;15.20;61.60;16.00;101507.00;;;;5050200;28;20779;-51
2023/10/16 02:47:51;;;;;;;1.87;1.77;;;15.20;61.60;16.00;101520.00;;;;5069889;28;20193;-51
2023/10/16 02:50:18;;;;;;;2.10;1.90;;;15.20;61.60;16.00;101513.00;;;;5069699;28;20743;-51
2023/10/16 02:52:45;;;;;;;2.20;2.00;;;15.10;61.60;16.00;101519.00;;;;5069673;28;20235;-52
2023/10/16 02:55:11;;;;;;;2.20;2.00;;;15.10;61.70;15.90;101524.00;;;;5069425;28;20826;-52
2023/10/16 02:57:40;;;;;;;1.83;1.73;;;15.10;61.70;15.90;101460.00;;;;5069576;28;20261;-51
2023/10/16 03:00:15;;;;;;;1.90;1.80;;;15.10;61.70;15.90;101528.00;;;;5069442;28;20846;-52
2023/10/16 03:02:41;;;;;;;1.87;1.77;;;15.10;61.70;15.90;101531.00;;;;5070953;28;20678;-51
2023/10/16 03:05:11;;;;;;;2.00;1.80;;;15.20;61.90;15.90;101524.00;;;;5070888;28;20181;-52
2023/10/16 03:07:39;;;;;;;2.47;1.60;;;15.10;61.80;15.90;101532.00;;;;5070823;28;20571;-52
2023/10/16 03:10:08;;;;;;;1.90;1.80;;;15.10;61.90;15.90;101522.00;;;;5070538;28;20221;-52
2023/10/16 03:12:34;;;;;;;2.10;1.90;;;15.10;61.90;15.90;101531.00;;;;5070208;28;20235;-51
2023/10/16 03:15:01;;;;;;;2.10;2.00;;;15.00;61.80;15.80;101523.00;;;;5070708;28;20181;-51
2023/10/16 03:19:56;;;;;;;1.97;1.87;;;15.10;61.90;15.80;101523.00;;;;5070405;28;20204;-51
2023/10/16 03:22:22;;;;;;;2.40;1.80;;;15.00;61.80;15.80;101530.00;;;;5069438;28;20181;-52
2023/10/16 03:24:48;;;;;;;2.13;1.93;;;15.00;61.80;15.80;101520.00;;;;5070166;28;20185;-52
2023/10/16 03:27:28;;;;;;;2.00;1.80;;;15.00;61.90;15.80;101523.00;;;;5066006;28;20255;-56
2023/10/16 03:29:55;;;;;;;2.00;1.90;;;15.00;62.10;15.70;101523.00;;;;5045598;28;20201;-51
2023/10/16 03:32:24;;;;;;;2.10;1.93;;;15.00;62.40;15.70;101519.00;;;;5054805;28;20174;-51
2023/10/16 03:34:51;;;;;;;2.10;1.90;;;15.00;62.60;15.70;101524.00;;;;5066635;28;20177;-51
2023/10/16 03:37:18;;;;;;;1.87;1.77;;;15.00;62.50;15.70;101526.00;;;;5070377;28;20539;-52
2023/10/16 03:39:46;;;;;;;1.97;1.87;;;15.00;62.60;15.70;101512.00;;;;5069375;28;20611;-52
2023/10/16 03:42:17;;;;;;;2.53;1.90;;;15.00;63.80;15.70;101500.00;;;;5069610;28;20669;-51
2023/10/16 03:44:43;;;;;;;2.20;1.90;;;15.00;63.20;15.50;101519.00;;;;5068340;28;20208;-51
2023/10/16 03:47:10;;;;;;;1.80;1.70;;;15.00;63.30;15.70;101517.00;;;;5069239;28;20539;-51
2023/10/16 03:49:38;;;;;;;1.90;1.80;;;15.10;63.50;15.70;101520.00;;;;5068658;28;20770;-51
2023/10/16 03:52:07;;;;;;;2.07;1.70;;;15.20;63.50;15.70;101519.00;;;;5068610;28;20717;-51
2023/10/16 03:54:35;;;;;;;2.87;1.73;;;15.20;63.40;15.80;101518.00;;;;5069755;28;20173;-51
2023/10/16 03:57:03;;;;;;;6.20;1.80;;;15.30;63.30;15.80;101515.00;;;;5069511;28;20206;-51
2023/10/16 03:59:29;;;;;;;3.43;1.90;;;15.40;63.20;15.90;101515.00;;;;5067902;28;20181;-50
2023/10/16 04:01:56;;;;;;;3.03;1.90;;;15.50;63.20;16.00;101519.00;;;;5069225;28;20208;-51
2023/10/16 04:04:26;;;;;;;3.87;1.80;;;15.70;63.10;16.00;101519.00;;;;5069637;28;20268;-52
2023/10/16 04:06:56;;;;;;;1.90;1.80;;;15.80;63.00;16.10;101514.00;;;;5068844;28;20234;-51
2023/10/16 04:09:29;;;;;;;1.83;1.70;;;15.90;63.00;16.20;101502.00;;;;5069975;28;20185;-52
2023/10/16 04:12:02;;;;;;;2.20;2.00;;;16.00;63.30;16.30;101514.00;;;;5076598;28;20255;-51
2023/10/16 04:14:50;;;;;;;2.33;1.90;;;16.20;63.30;16.40;101516.00;;;;5069644;28;20201;-51
2023/10/16 04:17:16;;;;;;;3.60;1.90;;;16.20;63.20;16.50;101517.00;;;;5069801;28;20186;-51
2023/10/16 04:19:59;;;;;;;1.70;1.60;;;16.30;63.30;16.50;101510.00;;;;5068598;28;20181;-51
2023/10/16 04:22:25;;;;;;;3.03;1.60;;;16.40;63.50;16.60;101518.00;;;;5069001;28;20594;-52
2023/10/16 04:24:54;;;;;;;1.80;1.70;;;16.40;63.50;16.70;101513.00;;;;5060264;28;20303;-51
2023/10/16 04:29:49;;;;;;;2.40;1.70;;;16.40;63.70;16.70;101498.00;;;;5068219;28;20645;-51
2023/10/16 04:34:54;;;;;;;10.10;2.40;;;16.40;63.90;16.80;101489.00;;;;5068101;28;20173;-51
2023/10/16 04:37:29;;;;;;;10.27;2.43;;;16.40;64.20;16.80;101495.00;;;;5067882;28;20213;-51
2023/10/16 04:47:56;;;;;;;6.33;2.00;;;16.40;65.10;16.80;101479.00;;;;5068628;28;20201;-52
2023/10/16 04:50:29;;;;;;;6.50;2.20;;;16.40;65.00;16.80;101462.00;;;;5067184;28;20198;-53
2023/10/16 05:06:14;;;;;;;5.83;3.03;;;16.40;67.00;16.80;101454.00;;;;5060630;28;20185;-51
2023/10/16 05:13:17;;;;;;;5.30;2.47;;;16.30;67.10;16.80;101466.00;;;;5061264;28;20228;-52
2023/10/16 05:15:20;;;;;;;5.83;2.20;;;16.30;67.20;16.80;101461.00;;;;5066671;28;20188;-54
2023/10/16 05:20:34;;;;;;;4.27;2.23;;;16.20;67.40;16.70;101456.00;;;;5066790;28;20698;-52
2023/10/16 06:14:09;;;;;;;5.40;2.40;;;16.20;67.70;16.70;101437.00;;;;5066401;28;20283;-51
2023/10/16 06:14:48;;;;;;;3.80;2.37;;;15.80;67.30;16.30;101483.00;;;;5073123;28;20213;-52
2023/10/16 06:17:15;;;;;;;3.20;2.03;;;15.70;67.30;16.30;101480.00;;;;5078262;28;20175;-51
2023/10/16 06:19:42;;;;;;;2.53;2.13;;;15.70;67.30;16.30;101480.00;;;;5073158;28;20648;-52
2023/10/16 06:22:08;;;;;;;2.47;2.20;;;15.70;67.40;16.30;101485.00;;;;5071083;28;20181;-52
2023/10/16 06:24:38;;;;;;;4.23;2.03;;;15.70;67.40;16.30;101485.00;;;;5070570;28;20537;-52
2023/10/16 06:27:19;;;;;;;2.20;2.00;;;15.70;67.50;16.30;101492.00;;;;5068902;28;20179;-52
2023/10/16 06:29:51;;;;;;;3.63;1.90;;;15.70;67.50;16.20;101489.00;;;;5070533;28;20566;-52
2023/10/16 06:32:22;;;;;;;2.13;1.93;;;15.60;67.40;16.20;101488.00;;;;5071793;28;20248;-53
2023/10/16 06:35:01;;;;;;;4.50;2.00;;;15.60;67.40;16.20;101488.00;;;;5070151;28;20220;-51
2023/10/16 06:37:31;;;;;;;2.87;1.97;;;15.60;67.40;16.20;101484.00;;;;5071408;28;20182;-51
2023/10/16 06:40:00;;;;;;;3.20;2.20;;;15.60;67.40;16.20;101481.00;;;;5071074;28;20185;-52
2023/10/16 06:42:27;;;;;;;2.53;2.00;;;15.50;67.30;16.20;101465.00;;;;5072123;28;20335;-53
2023/10/16 06:44:53;;;;;;;2.13;1.90;;;15.50;67.40;16.10;101495.00;;;;5061162;28;20191;-52
2023/10/16 06:47:35;;;;;;;2.07;1.90;;;15.50;67.40;16.10;101494.00;;;;5030175;28;20644;-51
2023/10/16 06:50:53;;;;;;;2.93;2.00;;;15.50;67.40;16.10;101486.00;;;;5043809;28;20287;-52
2023/10/16 06:52:51;;;;;;;2.10;1.90;;;15.50;67.60;16.10;101492.00;;;;5054711;28;20220;-52
2023/10/16 06:55:17;;;;;;;2.87;1.90;;;15.50;67.50;16.10;101485.00;;;;5071522;28;20288;-51
2023/10/16 06:57:43;;;;;;;2.70;1.80;;;15.40;67.50;16.00;101485.00;;;;5059404;28;20222;-52
2023/10/16 07:00:22;;;;;;;2.13;1.90;;;15.40;67.60;16.00;101481.00;;;;5051698;28;20202;-53
2023/10/16 07:02:54;;;;;;;4.67;2.00;;;15.40;67.60;16.00;101487.00;;;;5052216;28;20489;-51
2023/10/16 07:05:42;;;;;;;5.63;1.97;;;15.40;67.90;16.00;101493.00;;;;5044779;28;20177;-51
2023/10/16 07:08:08;;;;;;;3.20;2.20;;;15.40;67.80;16.00;101483.00;;;;5050060;28;20218;-52
2023/10/16 07:10:34;;;;;;;2.40;2.20;;;15.40;67.70;16.00;101491.00;;;;5055473;28;20239;-52
2023/10/16 07:13:00;;;;;;;3.80;2.10;;;15.40;67.60;16.00;101484.00;;;;5052551;28;20178;-51
2023/10/16 07:15:29;;;;;;;3.17;2.30;;;15.40;67.60;16.00;101482.00;;;;5066994;28;20182;-52
2023/10/16 07:18:06;;;;;;;2.73;2.03;;;15.50;67.50;16.10;101488.00;;;;5070477;28;20707;-51
2023/10/16 07:20:34;;;;;;;2.50;2.20;;;15.60;67.40;16.10;101486.00;;;;5069744;28;20208;-52
2023/10/16 07:23:00;;;;;;;2.33;2.00;;;15.70;67.20;16.20;101485.00;;;;5067167;28;20231;-52
2023/10/16 07:25:37;;;;;;;2.87;2.10;;;15.90;67.20;16.20;101483.00;;;;5070014;28;20584;-52
2023/10/16 07:28:08;;;;;;;3.17;2.00;;;15.90;66.80;16.30;101476.00;;;;5063782;28;20205;-51
2023/10/16 07:30:39;;;;;;;2.10;1.90;;;16.10;66.60;16.40;101485.00;;;;5066541;28;20221;-51
2023/10/16 07:33:04;;;;;;;3.20;2.00;;;16.20;66.50;16.50;101488.00;;;;5070202;28;20338;-51
2023/10/16 07:35:30;;;;;;;2.20;2.00;;;16.30;66.60;16.50;101486.00;;;;5069819;28;20186;-52
2023/10/16 07:37:58;;;;;;;2.10;1.90;;;16.50;66.70;16.70;101493.00;;;;5069514;28;20192;-51
2023/10/16 07:40:25;;;;;;;3.20;2.00;;;16.60;66.40;16.80;101498.00;;;;5069658;28;20206;-51
2023/10/16 07:42:52;;;;;;;2.50;2.03;;;16.70;66.30;16.90;101500.00;;;;5070582;28;20185;-51
2023/10/16 07:45:19;;;;;;;4.30;2.17;;;16.90;66.10;17.00;101489.00;;;;5061225;28;20444;-51
2023/10/16 07:47:48;;;;;;;2.53;2.10;;;17.00;66.20;17.10;101487.00;;;;5052345;28;20208;-52
2023/10/16 07:50:17;;;;;;;2.20;2.00;;;17.10;66.20;17.20;101481.00;;;;5070354;28;20204;-51
2023/10/16 07:52:43;;;;;;;2.10;1.90;;;17.20;66.10;17.30;101494.00;;;;5068816;28;20201;-51
2023/10/16 07:55:18;;;;;;;3.50;2.10;;;17.40;66.00;17.40;101488.00;;;;5073227;28;20195;-51
2023/10/16 07:57:48;;;;;;;3.00;2.00;;;17.50;65.80;17.50;101495.00;;;;5069234;28;20366;-51
2023/10/16 08:00:14;;;;;;;2.30;2.10;;;17.60;65.70;17.60;101491.00;;;;5059252;28;20223;-51
2023/10/16 08:02:45;;;;;;;5.57;2.23;;;17.70;65.60;17.70;101487.00;;;;5068808;28;20206;-52
2023/10/16 08:05:15;;;;;;;2.40;1.90;;;17.70;65.50;17.80;101488.00;;;;5068569;28;20226;-52
2023/10/16 08:07:48;;;;;;;2.13;1.93;;;17.80;65.50;17.60;101495.00;;;;5070757;28;20214;-52
2023/10/16 08:10:41;;;;;;;4.23;2.10;;;17.90;65.40;17.90;101494.00;;;;5076037;28;20203;-52
2023/10/16 08:13:14;;;;;;;4.13;2.10;;;18.00;65.50;18.00;101486.00;;;;5071542;28;20313;-51
2023/10/16 08:15:51;;;;;;;2.40;2.10;;;18.10;65.40;18.10;101491.00;;;;5062894;28;20176;-52
2023/10/16 08:18:18;;;;;;;2.33;1.90;;;18.20;65.30;18.20;101486.00;;;;5069777;28;20176;-52
2023/10/16 08:21:00;;;;;;;2.33;2.00;;;18.20;65.30;18.20;101490.00;;;;5068935;28;20233;-52
2023/10/16 08:23:34;;;;;;;2.73;2.20;;;18.30;65.50;18.30;101500.00;;;;5065524;28;20264;-52
2023/10/16 08:26:19;;;;;;;2.07;1.97;;;18.30;65.60;18.40;101504.00;;;;5069033;28;20213;-52
2023/10/16 08:28:45;;;;;;;3.40;2.20;;;18.30;65.80;18.40;101485.00;;;;5062557;28;20739;-52
2023/10/16 08:31:22;;;;;;;6.13;2.10;;;18.30;65.70;18.40;101496.00;;;;5069068;28;20193;-51
2023/10/16 08:33:54;;;;;;;3.63;1.97;;;18.40;65.80;18.50;101494.00;;;;5067909;28;20475;-51
2023/10/16 08:36:21;;;;;;;5.20;2.40;;;18.40;65.90;18.50;101511.00;;;;5069141;28;20264;-52
2023/10/16 08:38:53;;;;;;;3.20;2.20;;;18.50;67.20;18.60;101503.00;;;;5067908;28;20177;-52
2023/10/16 08:42:01;;;;;;;2.67;2.40;;;18.50;67.90;18.60;101505.00;;;;5068855;28;20586;-52
2023/10/16 08:44:28;;;;;;;2.47;2.10;;;18.50;68.30;18.60;101497.00;;;;5068763;28;20571;-51
2023/10/16 08:49:24;;;;;;;3.83;2.30;;;18.50;69.10;18.70;101498.00;;;;5068118;28;20702;-52
2023/10/16 08:51:54;;;;;;;3.83;2.37;;;18.50;69.00;18.70;101496.00;;;;5064268;28;20812;-52
2023/10/16 08:57:07;;;;;;;3.87;2.60;;;18.60;69.50;18.80;101500.00;;;;5046541;28;20667;-51
2023/10/16 08:59:33;;;;;;;6.87;2.90;;;18.70;69.80;18.80;101496.00;;;;5050300;28;20217;-52
2023/10/16 09:02:01;;;;;;;4.57;3.07;;;18.60;70.60;18.90;101495.00;;;;5036694;28;20216;-52
2023/10/16 09:04:27;;;;;;;6.37;3.63;;;18.60;71.00;18.90;101502.00;;;;5053193;28;20171;-56
2023/10/16 09:06:53;;;;;;;6.97;4.47;;;18.60;72.10;18.90;101504.00;;;;5048612;28;20173;-52
2023/10/16 09:09:20;;;;;;;7.57;3.70;;;18.60;73.20;18.90;101500.00;;;;5064029;28;20213;-52
2023/10/16 09:11:47;;;;;;;5.63;4.00;;;18.60;73.60;18.90;101499.00;;;;5066437;28;20272;-52
2023/10/16 09:14:17;;;;;;;7.00;3.87;;;18.70;73.90;18.90;101518.00;;;;5067901;28;20595;-52
2023/10/16 09:16:46;;;;;;;5.60;3.50;;;18.70;73.60;18.90;101508.00;;;;5068816;28;20697;-52
2023/10/16 09:19:14;;;;;;;8.23;4.30;;;18.70;73.30;19.00;101509.00;;;;5066724;28;20292;-52
2023/10/16 09:21:43;;;;;;;5.33;3.80;;;18.70;73.30;19.00;101504.00;;;;5068265;28;20267;-52
2023/10/16 09:24:11;;;;;;;5.47;3.60;;;18.60;73.20;19.00;101502.00;;;;5065579;28;20606;-52
2023/10/16 09:26:44;;;;;;;4.27;3.50;;;18.60;73.10;19.00;101500.00;;;;5067142;28;20189;-52
2023/10/16 09:29:20;;;;;;;4.00;3.57;;;18.60;72.80;19.00;101505.00;;;;5055395;28;20255;-52
2023/10/16 09:31:46;;;;;;;7.13;3.50;;;18.60;72.80;19.00;101497.00;;;;5064372;28;20189;-51
2023/10/16 09:34:18;;;;;;;6.40;3.37;;;18.60;73.40;19.00;101498.00;;;;5054623;28;20177;-52
2023/10/16 09:37:14;;;;;;;6.67;3.60;;;18.60;73.70;19.00;101506.00;;;;5063175;28;20261;-52
2023/10/16 09:39:37;;;;;;;5.20;3.50;;;18.60;73.80;18.90;101508.00;;;;5048535;28;20545;-52
2023/10/16 09:42:12;;;;;;;6.63;3.03;;;18.60;74.00;18.90;101501.00;;;;5049969;28;20273;-51
2023/10/16 09:47:35;;;;;;;9.77;3.30;;;18.50;73.60;18.90;101489.00;;;;5065491;28;20247;-51
2023/10/16 09:50:11;;;;;;;11.07;3.80;;;18.50;74.00;18.90;101507.00;;;;5065714;28;20688;-52
2023/10/16 09:52:39;;;;;;;8.33;3.50;;;18.50;73.10;18.90;101505.00;;;;5067944;28;20227;-51
2023/10/16 09:55:05;;;;;;;13.37;3.60;;;18.50;73.10;18.90;101515.00;;;;5076034;28;20192;-52
2023/10/16 09:57:31;;;;;;;9.23;3.17;;;18.50;73.10;18.90;101515.00;;;;5074551;28;20553;-52
2023/10/16 10:00:00;;;;;;;9.33;3.43;;;18.50;73.30;18.90;101505.00;;;;5059158;28;20178;-51
2023/10/16 10:02:26;;;;;;;7.93;3.13;;;18.50;73.30;18.90;101510.00;;;;5067594;28;20185;-50
2023/10/16 10:04:59;;;;;;;7.30;3.37;;;18.40;73.50;18.90;101500.00;;;;5047971;28;20190;-53
2023/10/16 10:07:38;;;;;;;7.80;3.37;;;18.40;73.40;18.90;101485.00;;;;5048574;28;20183;-52
2023/10/16 10:12:54;;;;;;;8.37;3.27;;;18.40;73.30;18.80;101495.00;;;;5049431;28;20607;-52
2023/10/16 10:15:29;;;;;;;6.77;3.10;;;18.40;73.50;18.80;101505.00;;;;5048182;28;20177;-52
2023/10/16 10:17:56;;;;;;;10.67;3.53;;;18.40;73.60;18.80;101494.00;;;;5046453;28;20188;-52
2023/10/16 10:20:39;;;;;;;7.90;3.27;;;18.30;73.50;18.70;101495.00;;;;5047708;28;20222;-52
2023/10/16 10:23:05;;;;;;;7.60;3.30;;;18.40;73.40;18.80;101494.00;;;;5047343;28;20193;-51
2023/10/16 10:25:40;;;;;;;9.77;3.23;;;18.30;73.80;18.80;101500.00;;;;5033695;28;20178;-51
2023/10/16 10:28:22;;;;;;;10.00;3.40;;;18.30;73.90;18.80;101494.00;;;;5046257;28;20196;-51
2023/10/16 10:30:49;;;;;;;12.33;3.40;;;18.30;73.70;18.80;101498.00;;;;5052853;28;20197;-51
2023/10/16 10:33:55;;;;;;;9.70;3.40;;;18.30;73.50;18.70;101492.00;;;;5034864;28;20448;-52
2023/10/16 10:36:33;;;;;;;7.23;3.23;;;18.30;73.40;18.70;101492.00;;;;5076930;28;20204;-53
2023/10/16 10:39:21;;;;;;;7.07;3.10;;;18.20;73.30;18.70;101494.00;;;;5067798;28;20946;-52
2023/10/16 10:41:48;;;;;;;6.70;3.13;;;18.20;73.30;18.70;101481.00;;;;5052254;28;20206;-52
2023/10/16 10:44:15;;;;;;;7.03;2.97;;;18.20;72.80;18.70;101488.00;;;;5052270;28;20174;-52
2023/10/16 10:46:44;;;;;;;8.80;3.23;;;18.20;72.80;18.70;101486.00;;;;5060832;28;20600;-51
2023/10/16 10:49:15;;;;;;;4.60;2.90;;;18.10;72.70;18.60;101479.00;;;;5046096;28;20616;-51
2023/10/16 10:51:47;;;;;;;6.87;2.80;;;18.20;72.80;18.60;101477.00;;;;5052912;28;20190;-51
2023/10/16 10:54:13;;;;;;;8.10;2.97;;;18.10;72.70;18.60;101473.00;;;;5051979;28;20324;-52
2023/10/16 10:56:50;;;;;;;7.10;2.70;;;18.10;72.60;18.60;101466.00;;;;5064721;28;20196;-51
2023/10/16 10:59:41;;;;;;;4.67;3.07;;;18.10;72.70;18.60;101462.00;;;;5048283;28;20190;-52
2023/10/16 11:04:47;;;;;;;7.20;2.83;;;18.10;72.60;18.60;101454.00;;;;5061923;28;20291;-52
2023/10/16 11:07:25;;;;;;;7.93;2.83;;;18.10;72.60;18.60;101460.00;;;;5070752;28;20230;-52
2023/10/16 11:09:52;;;;;;;7.83;3.20;;;18.10;72.20;18.60;101453.00;;;;5057567;28;20540;-52
2023/10/16 11:12:24;;;;;;;4.83;2.90;;;18.10;72.10;18.60;101451.00;;;;5052139;28;20166;-52
2023/10/16 11:14:50;;;;;;;8.60;3.17;;;18.10;72.00;18.60;101447.00;;;;5054081;28;20170;-52
2023/10/16 11:17:32;;;;;;;5.30;2.80;;;18.10;71.80;18.60;101446.00;;;;5070126;28;20181;-52
2023/10/16 11:19:59;;;;;;;5.70;2.83;;;18.00;71.70;18.60;101427.00;;;;5057935;28;20170;-52
2023/10/16 11:22:27;;;;;;;3.57;2.90;;;18.00;71.70;18.60;101437.00;;;;5063858;28;20652;-51
2023/10/16 11:24:52;;;;;;;3.13;2.83;;;18.00;71.60;18.60;101429.00;;;;5054503;28;20652;-51
2023/10/16 11:27:19;;;;;;;9.30;3.00;;;18.00;72.00;18.60;101434.00;;;;5063991;28;20208;-52
2023/10/16 11:29:46;;;;;;;4.17;2.87;;;18.00;72.10;18.60;101431.00;;;;5057687;28;20171;-53
2023/10/16 11:32:15;;;;;;;7.90;3.17;;;18.00;71.90;18.60;101425.00;;;;5056528;28;20177;-52
2023/10/16 11:34:49;;;;;;;7.57;2.83;;;18.00;71.70;18.60;101422.00;;;;5069955;28;20186;-52
2023/10/16 11:37:16;;;;;;;4.37;2.63;;;18.00;71.70;18.60;101405.00;;;;5053923;28;20180;-52
2023/10/16 11:39:44;;;;;;;4.43;2.80;;;18.00;71.50;18.60;101404.00;;;;5034370;28;20248;-52
2023/10/16 11:42:13;;;;;;;4.57;2.70;;;18.00;71.50;18.60;101408.00;;;;5064690;28;20189;-51
2023/10/16 11:44:40;;;;;;;4.10;2.60;;;18.00;71.40;18.60;101403.00;;;;5051923;28;20190;-52
2023/10/16 11:47:09;;;;;;;6.10;2.50;;;18.00;71.40;18.60;101393.00;;;;5049110;28;20768;-52
2023/10/16 11:49:38;;;;;;;3.90;3.00;;;18.00;71.40;18.60;101392.00;;;;5048721;28;20340;-52
2023/10/16 11:52:19;;;;;;;6.37;2.90;;;18.00;71.50;18.60;101395.00;;;;5050188;28;20202;-52
2023/10/16 11:54:46;;;;;;;3.93;2.70;;;18.00;71.40;18.60;101392.00;;;;5056587;28;20189;-52
2023/10/16 11:57:13;;;;;;;3.60;2.70;;;18.00;71.50;18.60;101385.00;;;;5057564;28;20429;-52
2023/10/16 11:59:39;;;;;;;3.13;2.60;;;18.00;71.50;18.60;101394.00;;;;5051193;28;20244;-51
2023/10/16 12:02:16;;;;;;;3.87;2.60;;;17.90;71.30;18.60;101396.00;;;;5050803;28;20210;-51
2023/10/16 12:04:42;;;;;;;5.30;2.67;;;18.00;71.50;18.60;101388.00;;;;5051350;28;20218;-52
2023/10/16 12:07:08;;;;;;;3.30;2.90;;;17.90;72.10;18.60;101383.00;;;;5049822;28;20213;-51
2023/10/16 12:09:37;;;;;;;3.10;2.40;;;17.90;71.50;18.60;101386.00;;;;5058578;28;20294;-51
2023/10/16 12:12:06;;;;;;;5.20;2.60;;;17.90;71.30;18.60;101387.00;;;;5053489;28;20213;-52
2023/10/16 12:14:37;;;;;;;5.37;2.60;;;17.90;71.40;18.50;101385.00;;;;5049960;28;20186;-52
2023/10/16 12:17:12;;;;;;;4.53;2.47;;;17.90;71.30;18.60;101382.00;;;;5049947;28;20281;-52
2023/10/16 12:19:38;;;;;;;4.63;2.83;;;17.90;71.30;18.60;101375.00;;;;5049696;28;20571;-52
2023/10/16 12:22:03;;;;;;;3.23;2.67;;;17.90;71.30;18.60;101384.00;;;;5049621;28;20198;-52
2023/10/16 12:24:29;;;;;;;2.60;2.40;;;17.90;71.30;18.60;101380.00;;;;5065283;28;20196;-51
2023/10/16 12:26:55;;;;;;;3.53;2.53;;;17.90;71.30;18.60;101380.00;;;;5068762;28;20246;-51
2023/10/16 12:29:22;;;;;;;3.73;2.80;;;17.90;71.30;18.60;101371.00;;;;5065820;28;20201;-51
2023/10/16 12:31:48;;;;;;;3.27;2.47;;;17.90;71.30;18.60;101369.00;;;;5070048;28;20679;-51
2023/10/16 12:34:16;;;;;;;2.63;2.27;;;17.90;71.30;18.60;101368.00;;;;5070667;28;20276;-52
2023/10/16 12:36:43;;;;;;;2.70;2.50;;;17.90;71.20;18.60;101364.00;;;;5069646;28;20209;-52
2023/10/16 12:39:24;;;;;;;2.77;2.30;;;17.90;71.30;18.60;101363.00;;;;5063306;28;20709;-51
2023/10/16 12:41:57;;;;;;;2.80;2.50;;;17.80;71.10;18.60;101346.00;;;;5068900;28;20209;-52
2023/10/16 12:44:26;;;;;;;3.17;2.20;;;17.90;71.10;18.60;101348.00;;;;5069389;28;20213;-52